N G Explorer — C6WR2 — position and weather

sailwx.info

Track history (hours):
 
Tides and Currents Weather Stations Pressure Air Temp Water Temp Dewpoint Dewpoint Depression Visibility Wind Speed Wind Dir Waves Ship Positions

N G Explorer

Last reported at 2019-Jul-05 21:20 UTC. Time now 2019-Jul-22 05:35 UTC.
Position N 77°11' E 010°38'.
Warning: this ship's position is 16 days out of date.

Length 112 m; draft 4.8 m.

Type: Passenger vessel. MMSI: 309336000.

Date/timePositionNaut miles runAvg speedWind from/ knotsBaromVisibWave heightAir tempDewpointWater temp
2019-Jul-05 21:20N 77°11' E 010°38'514.4
2019-Jul-05 21:00N 77°13' E 010°57'714.4
2019-Jul-05 20:29N 77°17' E 011°27'714.2
2019-Jul-05 20:00N 77°20' E 011°54'714.4
2019-Jul-05 19:30N 77°24' E 012°23'714.5
2019-Jul-05 19:00N 77°28' E 012°52'714.4
2019-Jul-05 18:30N 77°31' E 013°20'714.1
2019-Jul-05 18:00N 77°35' E 013°48'713.4
2019-Jul-05 17:30N 77°36' E 014°19'611.9
2019-Jul-05 17:00N 77°31' E 014°36'2 4.7
2019-Jul-05 16:30N 77°33' E 014°42'5 9.0
2019-Jul-05 16:00N 77°37' E 014°55'0 0.1
2019-Jul-05 15:28N 77°37' E 014°56'0 0.0
2019-Jul-05 14:55N 77°37' E 014°56'0 0.0
2019-Jul-05 14:28N 77°37' E 014°56'0 0.0
2019-Jul-05 13:58N 77°37' E 014°56'0 0.0
2019-Jul-05 13:28N 77°37' E 014°56'0 0.0
2019-Jul-05 12:58N 77°37' E 014°56'0 0.0
2019-Jul-05 12:28N 77°37' E 014°56'0 0.0
2019-Jul-05 11:58N 77°37' E 014°56'0 0.0
2019-Jul-05 11:25N 77°37' E 014°56'0 0.0
2019-Jul-05 10:58N 77°37' E 014°56'0 0.0
2019-Jul-05 10:28N 77°37' E 014°56'0 0.0
2019-Jul-05 09:55N 77°37' E 014°56'0 0.0
2019-Jul-05 09:25N 77°37' E 014°56'0 0.2
2019-Jul-05 08:56N 77°37' E 014°55'2 5.2
2019-Jul-05 08:30N 77°35' E 014°55'5 9.7
2019-Jul-05 08:00N 77°38' E 014°39'713.6
2019-Jul-05 07:30N 77°45' E 014°30'1 1.1
2019-Jul-05 07:00N 77°45' E 014°27'0 0.2
2019-Jul-05 06:29N 77°45' E 014°28'0 0.0
2019-Jul-05 05:59N 77°45' E 014°28'0 0.3
2019-Jul-05 05:30N 77°45' E 014°27'3 6.4
2019-Jul-05 05:00N 77°43' E 014°15'4 7.5
2019-Jul-05 04:30N 77°41' E 014°00'3 6.9
2019-Jul-05 04:00N 77°41' E 013°44'3 6.5
2019-Jul-05 03:30N 77°42' E 013°30'4 7.9
2019-Jul-05 03:00N 77°46' E 013°21'10 9.7
2019-Jul-05 02:00N 77°55' E 013°08'4 8.8
2019-Jul-05 01:30N 77°59' E 013°04'4 8.9
2019-Jul-05 01:00N 78°03' E 013°11'5 9.2
2019-Jul-05 00:30N 78°07' E 013°26'5 9.8
2019-Jul-05 00:00N 78°09' E 013°48'5 9.8
2019-Jul-04 23:30N 78°11' E 014°09'5 9.4
2019-Jul-04 23:00N 78°12' E 014°31'5 9.4
2019-Jul-04 22:30N 78°14' E 014°53'4 9.2
2019-Jul-04 22:00N 78°16' E 015°13'4 7.9
2019-Jul-04 21:28N 78°15' E 015°34'2 3.1
2019-Jul-04 20:58N 78°14' E 015°36'0 0.3
2019-Jul-04 20:30N 78°14' E 015°36'5 9.7
2019-Jul-04 20:00N 78°16' E 015°13'715.0
2019-Jul-04 19:30N 78°13' E 014°39'814.8
2019-Jul-04 19:00N 78°10' E 014°05'714.1
2019-Jul-04 18:30N 78°09' E 013°31'713.8
2019-Jul-04 17:59N 78°10' E 012°57'714.4
2019-Jul-04 17:29N 78°16' E 012°38'714.8
2019-Jul-04 17:00N 78°22' E 012°19'713.9
2019-Jul-04 16:30N 78°28' E 012°01'2 4.7
2019-Jul-04 15:59N 78°26' E 011°54'0 0.0
2019-Jul-04 15:29N 78°26' E 011°54'0 0.0
2019-Jul-04 14:59N 78°26' E 011°54'0 0.0
2019-Jul-04 14:29N 78°26' E 011°54'0 0.0
2019-Jul-04 13:59N 78°26' E 011°54'0 0.0
2019-Jul-04 13:29N 78°26' E 011°54'0 0.0
2019-Jul-04 12:59N 78°26' E 011°54'0 0.0
2019-Jul-04 12:29N 78°26' E 011°54'0 0.7
2019-Jul-04 12:00N 78°26' E 011°56'713.4
2019-Jul-04 11:30N 78°30' E 012°21'814.5
2019-Jul-04 10:56N 78°32' E 013°02'1 0.1
2019-Jul-04 07:29N 78°32' E 013°04'710.9
2019-Jul-04 06:49N 78°31' E 012°27'412.9
2019-Jul-04 06:30N 78°28' E 012°18'815.6
2019-Jul-04 06:00N 78°20' E 012°30'815.0
2019-Jul-04 05:30N 78°13' E 012°41'715.0
2019-Jul-04 05:00N 78°06' E 012°50'814.8
2019-Jul-04 04:30N 77°58' E 012°59'714.3
2019-Jul-04 04:00N 77°51' E 013°06'714.9
2019-Jul-04 03:30N 77°44' E 013°12'714.8
2019-Jul-04 03:00N 77°37' E 013°21'1514.9
2019-Jul-04 02:00N 77°23' E 013°36'714.9
2019-Jul-04 01:30N 77°15' E 013°46'815.3
2019-Jul-04 01:00N 77°08' E 013°60'815.1
2019-Jul-04 00:30N 77°02' E 014°14'714.9
2019-Jul-04 00:01N 76°55' E 014°30'814.9
2019-Jul-03 23:30N 76°49' E 014°48'815.4
2019-Jul-03 23:00N 76°42' E 015°05'815.3
2019-Jul-03 22:30N 76°36' E 015°22'815.1
2019-Jul-03 22:00N 76°30' E 015°44'814.9
2019-Jul-03 21:30N 76°25' E 016°05'714.6
2019-Jul-03 21:00N 76°22' E 016°34'815.4
2019-Jul-03 20:30N 76°25' E 017°05'815.2
2019-Jul-03 20:00N 76°31' E 017°22'815.4
2019-Jul-03 19:30N 76°39' E 017°29'714.9
2019-Jul-03 19:00N 76°46' E 017°34'611.7
2019-Jul-03 18:30N 76°52' E 017°40'714.8
2019-Jul-03 18:00N 76°59' E 017°45'714.8
2019-Jul-03 17:30N 77°06' E 017°50'814.8
2019-Jul-03 17:00N 77°14' E 017°56'3 0.3
2019-Jul-03 07:46N 77°17' E 017°59'413.7
2019-Jul-03 07:28N 77°13' E 017°56'713.9
2019-Jul-03 07:00N 77°07' E 017°51'814.1
2019-Jul-03 06:28N 76°59' E 017°46'714.1
2019-Jul-03 05:59N 76°53' E 017°40'714.2
2019-Jul-03 05:30N 76°46' E 017°34'714.0
2019-Jul-03 05:00N 76°39' E 017°28'713.8
2019-Jul-03 04:30N 76°32' E 017°23'914.0
2019-Jul-03 03:50N 76°24' E 017°02'514.8
2019-Jul-03 03:29N 76°22' E 016°41'715.1
2019-Jul-03 03:00N 76°23' E 016°10'1312.9
2019-Jul-03 02:00N 76°29' E 015°22'713.3
2019-Jul-03 01:29N 76°35' E 015°06'613.4
2019-Jul-03 01:00N 76°40' E 014°50'714.2
2019-Jul-03 00:30N 76°47' E 014°35'714.5
2019-Jul-03 00:00N 76°54' E 014°24'714.0
2019-Jul-02 23:30N 77°00' E 014°13'713.6
2019-Jul-02 23:00N 77°06' E 014°01'713.6
2019-Jul-02 22:30N 77°13' E 013°48'713.8
2019-Jul-02 22:00N 77°19' E 013°38'713.8
2019-Jul-02 21:30N 77°26' E 013°32'714.4
2019-Jul-02 21:00N 77°33' E 013°24'714.2
2019-Jul-02 20:30N 77°40' E 013°17'713.7
2019-Jul-02 20:00N 77°46' E 013°11'713.9
2019-Jul-02 19:30N 77°53' E 013°03'714.2
2019-Jul-02 19:00N 78°00' E 012°58'613.0
2019-Jul-02 18:30N 78°05' E 013°18'714.3
2019-Jul-02 18:00N 78°08' E 013°50'714.5
2019-Jul-02 17:30N 78°11' E 014°21'714.7
2019-Jul-02 17:00N 78°14' E 014°55'714.5
2019-Jul-02 16:30N 78°16' E 015°28'3 5.3
2019-Jul-02 15:59N 78°14' E 015°37'0 0.1
2019-Jul-02 15:29N 78°14' E 015°38'0 0.0
2019-Jul-02 14:59N 78°14' E 015°38'0 0.0
2019-Jul-02 14:29N 78°14' E 015°38'0 0.1
2019-Jul-02 13:59N 78°14' E 015°37'0 0.4
2019-Jul-02 13:29N 78°14' E 015°38'0 0.0
2019-Jul-02 12:59N 78°14' E 015°38'0 0.0
2019-Jul-02 12:29N 78°14' E 015°38'0 0.0
2019-Jul-02 11:59N 78°14' E 015°38'0 0.0
2019-Jul-02 11:29N 78°14' E 015°38'0 0.0
2019-Jul-02 10:59N 78°14' E 015°38'0 0.0
2019-Jul-02 10:29N 78°14' E 015°38'0 0.0
2019-Jul-02 09:59N 78°14' E 015°38'0 0.0
2019-Jul-02 09:29N 78°14' E 015°38'0 0.1
2019-Jul-02 08:59N 78°14' E 015°38'0 0.0
2019-Jul-02 08:29N 78°14' E 015°38'0 0.0
2019-Jul-02 07:59N 78°14' E 015°38'0 0.0
2019-Jul-02 07:29N 78°14' E 015°38'0 0.0
2019-Jul-02 06:59N 78°14' E 015°38'0 0.0
2019-Jul-02 06:29N 78°14' E 015°38'0 0.3
2019-Jul-02 06:00N 78°14' E 015°38'1 2.2
2019-Jul-02 05:30N 78°15' E 015°33'0 0.0
2019-Jul-02 05:00N 78°15' E 015°33'1 1.1
2019-Jul-02 04:30N 78°15' E 015°34'3 6.5
2019-Jul-02 04:00N 78°16' E 015°19'2 5.1
2019-Jul-02 03:30N 78°15' E 015°08'5 9.1
2019-Jul-02 03:00N 78°14' E 014°47'10 9.5
2019-Jul-02 02:00N 78°11' E 014°03'5 9.1
2019-Jul-02 01:30N 78°09' E 013°42'4 8.9
2019-Jul-02 01:00N 78°08' E 013°21'5 9.2
2019-Jul-02 00:30N 78°08' E 012°59'4 8.4
2019-Jul-02 00:00N 78°11' E 012°44'4 8.8
2019-Jul-01 23:30N 78°15' E 012°36'5 9.3
2019-Jul-01 23:00N 78°19' E 012°26'5 9.3
2019-Jul-01 22:30N 78°23' E 012°17'5 9.2
2019-Jul-01 22:00N 78°28' E 012°07'5 9.3
2019-Jul-01 21:28N 78°32' E 011°54'4 9.3
2019-Jul-01 21:00N 78°36' E 011°42'1 1.6
2019-Jul-01 20:30N 78°36' E 011°40'2 3.8
2019-Jul-01 20:00N 78°35' E 011°48'2 4.0
2019-Jul-01 19:30N 78°33' E 011°51'3 5.8
2019-Jul-01 19:00N 78°36' E 011°44'2 4.7
2019-Jul-01 18:30N 78°34' E 011°51'3 6.4
2019-Jul-01 18:00N 78°31' E 012°02'7 7.6
2019-Jul-01 17:03N 78°31' E 012°38'314.5
2019-Jul-01 16:51N 78°31' E 012°52'3 0.5
2019-Jul-01 11:49N 78°32' E 013°04'614.4
2019-Jul-01 11:26N 78°31' E 012°36'614.3
2019-Jul-01 11:00N 78°28' E 012°10'4 7.7
2019-Jul-01 10:30N 78°26' E 011°55'0 0.0
2019-Jul-01 10:00N 78°26' E 011°55'0 0.0
2019-Jul-01 09:29N 78°26' E 011°55'0 0.0
2019-Jul-01 09:00N 78°26' E 011°55'0 0.0
2019-Jul-01 08:28N 78°26' E 011°55'0 0.0
2019-Jul-01 07:59N 78°26' E 011°55'0 0.0
2019-Jul-01 07:29N 78°26' E 011°55'0 0.0
2019-Jul-01 07:00N 78°26' E 011°55'0 0.0
2019-Jul-01 06:30N 78°26' E 011°55'0 0.0
2019-Jul-01 06:00N 78°26' E 011°55'0 0.9
2019-Jul-01 05:29N 78°26' E 011°57'3 6.2
2019-Jul-01 04:58N 78°27' E 012°13'2 4.5
2019-Jul-01 04:30N 78°25' E 012°20'2 4.1
2019-Jul-01 04:00N 78°23' E 012°23'2 4.2
2019-Jul-01 03:30N 78°21' E 012°27'2 3.6
2019-Jul-01 02:59N 78°20' E 012°32'2 4.2
2019-Jul-01 02:28N 78°18' E 012°36'2 4.7
2019-Jul-01 02:00N 78°16' E 012°39'3 5.7
2019-Jul-01 01:28N 78°13' E 012°40'2 5.0
2019-Jul-01 01:00N 78°10' E 012°37'3 5.2
2019-Jul-01 00:30N 78°08' E 012°30'2 5.0
2019-Jul-01 00:00N 78°06' E 012°23'3 5.3
2019-Jun-30 23:30N 78°04' E 012°16'4 7.5
2019-Jun-30 23:00N 78°01' E 012°06'5 9.8
2019-Jun-30 22:30N 77°56' E 011°58'610.9
2019-Jun-30 21:59N 77°51' E 011°48'713.8
2019-Jun-30 21:30N 77°45' E 011°36'714.1
2019-Jun-30 21:00N 77°38' E 011°25'713.9
2019-Jun-30 20:30N 77°31' E 011°15'713.4
2019-Jun-30 20:00N 77°25' E 011°05'612.0
2019-Jun-30 19:30N 77°26' E 011°32'714.3
2019-Jun-30 19:00N 77°30' E 012°01'714.4
2019-Jun-30 18:30N 77°33' E 012°31'714.3
2019-Jun-30 18:01N 77°36' E 013°01'814.8
2019-Jun-30 17:30N 77°39' E 013°34'714.9
2019-Jun-30 17:00N 77°42' E 014°04'611.6
2019-Jun-30 16:30N 77°45' E 014°28'0 0.0
2019-Jun-30 16:00N 77°45' E 014°28'0 0.0
2019-Jun-30 15:30N 77°45' E 014°28'0 0.0
2019-Jun-30 15:00N 77°45' E 014°28'0 0.0
2019-Jun-30 14:30N 77°45' E 014°28'0 0.0
2019-Jun-30 14:00N 77°45' E 014°28'0 0.0
2019-Jun-30 13:30N 77°45' E 014°28'0 0.2
2019-Jun-30 13:00N 77°45' E 014°27'510.6
2019-Jun-30 12:30N 77°41' E 014°44'0 0.7
2019-Jun-30 12:00N 77°41' E 014°46'1 2.0
2019-Jun-30 11:30N 77°40' E 014°42'611.9
2019-Jun-30 11:00N 77°35' E 014°56'2 3.8
2019-Jun-30 10:28N 77°37' E 014°55'0 0.0
2019-Jun-30 09:55N 77°37' E 014°55'0 0.1
2019-Jun-30 09:22N 77°37' E 014°55'0 0.0
2019-Jun-30 08:58N 77°37' E 014°55'0 0.0
2019-Jun-30 08:25N 77°37' E 014°55'0 0.0
2019-Jun-30 07:58N 77°37' E 014°55'0 0.3
2019-Jun-30 07:24N 77°37' E 014°55'3 6.8
2019-Jun-30 06:59N 77°34' E 014°56'0 0.1
2019-Jun-30 06:30N 77°34' E 014°56'2 4.0
2019-Jun-30 06:00N 77°35' E 015°03'3 5.8
2019-Jun-30 05:30N 77°35' E 014°50'714.9
2019-Jun-30 05:00N 77°36' E 014°16'713.9
2019-Jun-30 04:30N 77°33' E 013°46'713.9
2019-Jun-30 04:00N 77°26' E 013°41'714.7
2019-Jun-30 03:30N 77°19' E 013°48'814.9
2019-Jun-30 02:59N 77°12' E 013°59'715.0
2019-Jun-30 02:30N 77°05' E 014°14'714.8
2019-Jun-30 02:00N 76°59' E 014°29'714.8
2019-Jun-30 01:30N 76°52' E 014°45'814.7
2019-Jun-30 00:58N 76°46' E 015°04'715.2
2019-Jun-30 00:30N 76°40' E 015°22'815.4
2019-Jun-30 00:00N 76°33' E 015°40'815.1
2019-Jun-29 23:30N 76°27' E 015°59'714.7
2019-Jun-29 23:00N 76°22' E 016°23'715.0
2019-Jun-29 22:30N 76°22' E 016°54'914.5
2019-Jun-29 21:53N 76°28' E 017°23'614.9
2019-Jun-29 21:30N 76°33' E 017°36'714.5
2019-Jun-29 21:00N 76°39' E 017°53'714.5
2019-Jun-29 20:30N 76°45' E 018°09'714.7
2019-Jun-29 20:00N 76°51' E 018°26'714.7
2019-Jun-29 19:30N 76°57' E 018°43'815.1
2019-Jun-29 19:00N 77°04' E 019°01'815.1
2019-Jun-29 18:29N 77°11' E 019°19'714.7
2019-Jun-29 17:59N 77°17' E 019°37'714.6
2019-Jun-29 17:29N 77°23' E 019°56'20 2.3
2019-Jun-29 08:30N 77°41' E 020°36'713.9
2019-Jun-29 08:00N 77°46' E 020°11'714.4
2019-Jun-29 07:30N 77°53' E 020°06'714.3
2019-Jun-29 07:00N 77°60' E 020°02'714.1
2019-Jun-29 06:29N 78°07' E 019°58'510.7
2019-Jun-29 05:59N 78°12' E 020°02'612.8
2019-Jun-29 05:30N 78°08' E 020°22'510.4
2019-Jun-29 05:00N 78°05' E 020°44'4 7.4
2019-Jun-29 04:30N 78°08' E 020°55'3 5.0
2019-Jun-29 03:59N 78°07' E 020°45'3 6.9
2019-Jun-29 03:30N 78°05' E 020°31'3 6.7
2019-Jun-29 03:00N 78°06' E 020°16'6 5.6
2019-Jun-29 01:59N 78°11' E 020°01'2 4.9
2019-Jun-29 01:30N 78°13' E 019°55'2 4.9
2019-Jun-29 01:00N 78°15' E 019°50'3 5.1
2019-Jun-29 00:30N 78°18' E 019°48'3 5.6
2019-Jun-29 00:00N 78°21' E 019°48'3 5.5
2019-Jun-28 23:30N 78°23' E 019°48'3 5.4
2019-Jun-28 23:00N 78°26' E 019°47'3 5.4
2019-Jun-28 22:30N 78°29' E 019°48'3 5.2
2019-Jun-28 22:00N 78°31' E 019°52'3 5.8
2019-Jun-28 21:30N 78°34' E 019°59'4 8.5
2019-Jun-28 21:00N 78°37' E 020°15'5 9.7
2019-Jun-28 20:29N 78°39' E 020°38'511.4
2019-Jun-28 20:00N 78°39' E 021°05'3 6.0
2019-Jun-28 19:30N 78°41' E 020°53'0 0.1
2019-Jun-28 19:00N 78°41' E 020°53'0 0.4
2019-Jun-28 18:28N 78°41' E 020°52'0 0.7
2019-Jun-28 17:59N 78°40' E 020°51'1 3.1
2019-Jun-28 17:30N 78°40' E 020°45'4 7.4
2019-Jun-28 17:00N 78°39' E 020°26'4 7.6
2019-Jun-28 16:30N 78°36' E 020°13'4 8.9
2019-Jun-28 16:00N 78°35' E 019°52'5 9.1
2019-Jun-28 15:25N 78°33' E 019°28'1410.8
2019-Jun-28 14:05N 78°19' E 019°08'2 1.0
2019-Jun-28 12:26N 78°17' E 019°09'614.0
2019-Jun-28 12:00N 78°16' E 019°38'611.2
2019-Jun-28 11:30N 78°13' E 020°02'713.7
2019-Jun-28 11:00N 78°08' E 020°23'510.1
2019-Jun-28 10:30N 78°05' E 020°44'3 6.9
2019-Jun-28 10:00N 78°08' E 020°53'713.5
2019-Jun-28 09:29N 78°12' E 021°22'2 0.7
2019-Jun-28 06:04N 78°13' E 021°32'0 4.0
2019-Jun-28 06:00N 78°13' E 021°31'2 1.7
2019-Jun-28 04:53N 78°12' E 021°25'512.7
2019-Jun-28 04:28N 78°10' E 021°03'612.1
2019-Jun-28 04:00N 78°05' E 020°44'713.2
2019-Jun-28 03:29N 77°59' E 020°36'713.5
2019-Jun-28 03:00N 77°53' E 020°22'713.5
2019-Jun-28 02:29N 77°47' E 020°07'713.6
2019-Jun-28 01:59N 77°41' E 019°50'713.7
2019-Jun-28 01:30N 77°35' E 019°34'713.7
2019-Jun-28 00:59N 77°29' E 019°23'813.8
2019-Jun-28 00:24N 77°21' E 019°09'913.7
2019-Jun-27 23:45N 77°13' E 018°53'313.5
2019-Jun-27 23:30N 77°10' E 018°48'713.5
2019-Jun-27 23:00N 77°03' E 018°36'713.7
2019-Jun-27 22:30N 76°57' E 018°23'713.7
2019-Jun-27 22:00N 76°51' E 018°10'713.9
2019-Jun-27 21:30N 76°45' E 017°56'714.0
2019-Jun-27 20:59N 76°38' E 017°42'713.9
2019-Jun-27 20:29N 76°32' E 017°29'1612.1
2019-Jun-27 19:08N 76°21' E 016°36'213.5
2019-Jun-27 19:00N 76°22' E 016°29'2012.9
2019-Jun-27 17:25N 76°36' E 015°26'713.8
2019-Jun-27 16:57N 76°42' E 015°16'614.0
2019-Jun-27 16:31N 76°48' E 015°10'713.7
2019-Jun-27 16:00N 76°55' E 015°13'714.1
2019-Jun-27 15:30N 76°58' E 015°40'5 9.1
2019-Jun-27 15:00N 77°01' E 015°56'0 0.1
2019-Jun-27 14:30N 77°01' E 015°56'0 0.2
2019-Jun-27 14:00N 77°01' E 015°55'0 0.0
2019-Jun-27 13:30N 77°01' E 015°55'0 0.0
2019-Jun-27 13:00N 77°01' E 015°55'0 0.0
2019-Jun-27 12:30N 77°01' E 015°55'0 0.0
2019-Jun-27 12:00N 77°01' E 015°55'0 0.0
2019-Jun-27 11:30N 77°01' E 015°55'2 4.2
2019-Jun-27 11:00N 77°00' E 016°04'3 0.9
2019-Jun-27 07:23N 77°00' E 016°19'0 0.0
2019-Jun-27 06:59N 77°00' E 016°19'20 8.1
2019-Jun-27 04:30N 76°59' E 014°50'714.0
2019-Jun-27 04:00N 77°02' E 014°21'713.8
2019-Jun-27 03:30N 77°06' E 013°57'714.0
2019-Jun-27 03:00N 77°12' E 013°42'1413.9
2019-Jun-27 02:00N 77°24' E 013°10'714.0
2019-Jun-27 01:30N 77°31' E 012°55'714.0
2019-Jun-27 01:00N 77°37' E 012°40'714.0
2019-Jun-27 00:30N 77°43' E 012°23'117 9.8
2019-Jun-26 12:29N 79°38' E 010°28'714.3
2019-Jun-26 12:00N 79°42' E 009°58'6 6.7
2019-Jun-26 11:06N 79°48' E 010°11'0 0.4
2019-Jun-26 10:54N 79°48' E 010°11'0 0.7
2019-Jun-26 10:11N 79°48' E 010°10'1 3.5
2019-Jun-26 09:58N 79°49' E 010°06'3 5.8
2019-Jun-26 09:30N 79°49' E 009°51'10 2.6
2019-Jun-26 05:30N 79°48' E 008°53'1 1.2
2019-Jun-26 05:00N 79°48' E 008°53'2 4.0
2019-Jun-26 04:30N 79°46' E 008°56'1811.9
2019-Jun-26 03:00N 79°28' E 009°10'1212.3
2019-Jun-26 02:00N 79°16' E 009°18'714.1
2019-Jun-26 01:30N 79°09' E 009°20'714.2
2019-Jun-26 01:01N 79°02' E 009°20'714.3
2019-Jun-26 00:30N 78°54' E 009°19'714.4
2019-Jun-26 00:00N 78°47' E 009°20'1314.3
2019-Jun-25 23:05N 78°35' E 009°46'214.6
2019-Jun-25 22:59N 78°34' E 009°51'814.5
2019-Jun-25 22:25N 78°27' E 010°13'614.5
2019-Jun-25 22:00N 78°22' E 010°29'714.6
2019-Jun-25 21:30N 78°16' E 010°51'  
Track history (hours):
 
Tides and Currents Weather Stations Pressure Air Temp Water Temp Dewpoint Dewpoint Depression Visibility Wind Speed Wind Dir Waves Ship Positions

N G Explorer

Last reported at 2019-Jul-05 21:20 UTC. Time now 2019-Jul-22 05:35 UTC.
Position N 77°11' E 010°38'.
Warning: this ship's position is 16 days out of date.

Length 112 m; draft 4.8 m.

Type: Passenger vessel. MMSI: 309336000.

Date/timePositionNaut miles runAvg speedWind from/ knotsBaromVisibWave heightAir tempDewpointWater temp
2019-Jul-05 21:20N 77°11' E 010°38'514.4
2019-Jul-05 21:00N 77°13' E 010°57'714.4
2019-Jul-05 20:29N 77°17' E 011°27'714.2
2019-Jul-05 20:00N 77°20' E 011°54'714.4
2019-Jul-05 19:30N 77°24' E 012°23'714.5
2019-Jul-05 19:00N 77°28' E 012°52'714.4
2019-Jul-05 18:30N 77°31' E 013°20'714.1
2019-Jul-05 18:00N 77°35' E 013°48'713.4
2019-Jul-05 17:30N 77°36' E 014°19'611.9
2019-Jul-05 17:00N 77°31' E 014°36'2 4.7
2019-Jul-05 16:30N 77°33' E 014°42'5 9.0
2019-Jul-05 16:00N 77°37' E 014°55'0 0.1
2019-Jul-05 15:28N 77°37' E 014°56'0 0.0
2019-Jul-05 14:55N 77°37' E 014°56'0 0.0
2019-Jul-05 14:28N 77°37' E 014°56'0 0.0
2019-Jul-05 13:58N 77°37' E 014°56'0 0.0
2019-Jul-05 13:28N 77°37' E 014°56'0 0.0
2019-Jul-05 12:58N 77°37' E 014°56'0 0.0
2019-Jul-05 12:28N 77°37' E 014°56'0 0.0
2019-Jul-05 11:58N 77°37' E 014°56'0 0.0
2019-Jul-05 11:25N 77°37' E 014°56'0 0.0
2019-Jul-05 10:58N 77°37' E 014°56'0 0.0
2019-Jul-05 10:28N 77°37' E 014°56'0 0.0
2019-Jul-05 09:55N 77°37' E 014°56'0 0.0
2019-Jul-05 09:25N 77°37' E 014°56'0 0.2
2019-Jul-05 08:56N 77°37' E 014°55'2 5.2
2019-Jul-05 08:30N 77°35' E 014°55'5 9.7
2019-Jul-05 08:00N 77°38' E 014°39'713.6
2019-Jul-05 07:30N 77°45' E 014°30'1 1.1
2019-Jul-05 07:00N 77°45' E 014°27'0 0.2
2019-Jul-05 06:29N 77°45' E 014°28'0 0.0
2019-Jul-05 05:59N 77°45' E 014°28'0 0.3
2019-Jul-05 05:30N 77°45' E 014°27'3 6.4
2019-Jul-05 05:00N 77°43' E 014°15'4 7.5
2019-Jul-05 04:30N 77°41' E 014°00'3 6.9
2019-Jul-05 04:00N 77°41' E 013°44'3 6.5
2019-Jul-05 03:30N 77°42' E 013°30'4 7.9
2019-Jul-05 03:00N 77°46' E 013°21'10 9.7
2019-Jul-05 02:00N 77°55' E 013°08'4 8.8
2019-Jul-05 01:30N 77°59' E 013°04'4 8.9
2019-Jul-05 01:00N 78°03' E 013°11'5 9.2
2019-Jul-05 00:30N 78°07' E 013°26'5 9.8
2019-Jul-05 00:00N 78°09' E 013°48'5 9.8
2019-Jul-04 23:30N 78°11' E 014°09'5 9.4
2019-Jul-04 23:00N 78°12' E 014°31'5 9.4
2019-Jul-04 22:30N 78°14' E 014°53'4 9.2
2019-Jul-04 22:00N 78°16' E 015°13'4 7.9
2019-Jul-04 21:28N 78°15' E 015°34'2 3.1
2019-Jul-04 20:58N 78°14' E 015°36'0 0.3
2019-Jul-04 20:30N 78°14' E 015°36'5 9.7
2019-Jul-04 20:00N 78°16' E 015°13'715.0
2019-Jul-04 19:30N 78°13' E 014°39'814.8
2019-Jul-04 19:00N 78°10' E 014°05'714.1
2019-Jul-04 18:30N 78°09' E 013°31'713.8
2019-Jul-04 17:59N 78°10' E 012°57'714.4
2019-Jul-04 17:29N 78°16' E 012°38'714.8
2019-Jul-04 17:00N 78°22' E 012°19'713.9
2019-Jul-04 16:30N 78°28' E 012°01'2 4.7
2019-Jul-04 15:59N 78°26' E 011°54'0 0.0
2019-Jul-04 15:29N 78°26' E 011°54'0 0.0
2019-Jul-04 14:59N 78°26' E 011°54'0 0.0
2019-Jul-04 14:29N 78°26' E 011°54'0 0.0
2019-Jul-04 13:59N 78°26' E 011°54'0 0.0
2019-Jul-04 13:29N 78°26' E 011°54'0 0.0
2019-Jul-04 12:59N 78°26' E 011°54'0 0.0
2019-Jul-04 12:29N 78°26' E 011°54'0 0.7
2019-Jul-04 12:00N 78°26' E 011°56'713.4
2019-Jul-04 11:30N 78°30' E 012°21'814.5
2019-Jul-04 10:56N 78°32' E 013°02'1 0.1
2019-Jul-04 07:29N 78°32' E 013°04'710.9
2019-Jul-04 06:49N 78°31' E 012°27'412.9
2019-Jul-04 06:30N 78°28' E 012°18'815.6
2019-Jul-04 06:00N 78°20' E 012°30'815.0
2019-Jul-04 05:30N 78°13' E 012°41'715.0
2019-Jul-04 05:00N 78°06' E 012°50'814.8
2019-Jul-04 04:30N 77°58' E 012°59'714.3
2019-Jul-04 04:00N 77°51' E 013°06'714.9
2019-Jul-04 03:30N 77°44' E 013°12'714.8
2019-Jul-04 03:00N 77°37' E 013°21'1514.9
2019-Jul-04 02:00N 77°23' E 013°36'714.9
2019-Jul-04 01:30N 77°15' E 013°46'815.3
2019-Jul-04 01:00N 77°08' E 013°60'815.1
2019-Jul-04 00:30N 77°02' E 014°14'714.9
2019-Jul-04 00:01N 76°55' E 014°30'814.9
2019-Jul-03 23:30N 76°49' E 014°48'815.4
2019-Jul-03 23:00N 76°42' E 015°05'815.3
2019-Jul-03 22:30N 76°36' E 015°22'815.1
2019-Jul-03 22:00N 76°30' E 015°44'814.9
2019-Jul-03 21:30N 76°25' E 016°05'714.6
2019-Jul-03 21:00N 76°22' E 016°34'815.4
2019-Jul-03 20:30N 76°25' E 017°05'815.2
2019-Jul-03 20:00N 76°31' E 017°22'815.4
2019-Jul-03 19:30N 76°39' E 017°29'714.9
2019-Jul-03 19:00N 76°46' E 017°34'611.7
2019-Jul-03 18:30N 76°52' E 017°40'714.8
2019-Jul-03 18:00N 76°59' E 017°45'714.8
2019-Jul-03 17:30N 77°06' E 017°50'814.8
2019-Jul-03 17:00N 77°14' E 017°56'3 0.3
2019-Jul-03 07:46N 77°17' E 017°59'413.7
2019-Jul-03 07:28N 77°13' E 017°56'713.9
2019-Jul-03 07:00N 77°07' E 017°51'814.1
2019-Jul-03 06:28N 76°59' E 017°46'714.1
2019-Jul-03 05:59N 76°53' E 017°40'714.2
2019-Jul-03 05:30N 76°46' E 017°34'714.0
2019-Jul-03 05:00N 76°39' E 017°28'713.8
2019-Jul-03 04:30N 76°32' E 017°23'914.0
2019-Jul-03 03:50N 76°24' E 017°02'514.8
2019-Jul-03 03:29N 76°22' E 016°41'715.1
2019-Jul-03 03:00N 76°23' E 016°10'1312.9
2019-Jul-03 02:00N 76°29' E 015°22'713.3
2019-Jul-03 01:29N 76°35' E 015°06'613.4
2019-Jul-03 01:00N 76°40' E 014°50'714.2
2019-Jul-03 00:30N 76°47' E 014°35'714.5
2019-Jul-03 00:00N 76°54' E 014°24'714.0
2019-Jul-02 23:30N 77°00' E 014°13'713.6
2019-Jul-02 23:00N 77°06' E 014°01'713.6
2019-Jul-02 22:30N 77°13' E 013°48'713.8
2019-Jul-02 22:00N 77°19' E 013°38'713.8
2019-Jul-02 21:30N 77°26' E 013°32'714.4
2019-Jul-02 21:00N 77°33' E 013°24'714.2
2019-Jul-02 20:30N 77°40' E 013°17'713.7
2019-Jul-02 20:00N 77°46' E 013°11'713.9
2019-Jul-02 19:30N 77°53' E 013°03'714.2
2019-Jul-02 19:00N 78°00' E 012°58'613.0
2019-Jul-02 18:30N 78°05' E 013°18'714.3
2019-Jul-02 18:00N 78°08' E 013°50'714.5
2019-Jul-02 17:30N 78°11' E 014°21'714.7
2019-Jul-02 17:00N 78°14' E 014°55'714.5
2019-Jul-02 16:30N 78°16' E 015°28'3 5.3
2019-Jul-02 15:59N 78°14' E 015°37'0 0.1
2019-Jul-02 15:29N 78°14' E 015°38'0 0.0
2019-Jul-02 14:59N 78°14' E 015°38'0 0.0
2019-Jul-02 14:29N 78°14' E 015°38'0 0.1
2019-Jul-02 13:59N 78°14' E 015°37'0 0.4
2019-Jul-02 13:29N 78°14' E 015°38'0 0.0
2019-Jul-02 12:59N 78°14' E 015°38'0 0.0
2019-Jul-02 12:29N 78°14' E 015°38'0 0.0
2019-Jul-02 11:59N 78°14' E 015°38'0 0.0
2019-Jul-02 11:29N 78°14' E 015°38'0 0.0
2019-Jul-02 10:59N 78°14' E 015°38'0 0.0
2019-Jul-02 10:29N 78°14' E 015°38'0 0.0
2019-Jul-02 09:59N 78°14' E 015°38'0 0.0
2019-Jul-02 09:29N 78°14' E 015°38'0 0.1
2019-Jul-02 08:59N 78°14' E 015°38'0 0.0
2019-Jul-02 08:29N 78°14' E 015°38'0 0.0
2019-Jul-02 07:59N 78°14' E 015°38'0 0.0
2019-Jul-02 07:29N 78°14' E 015°38'0 0.0
2019-Jul-02 06:59N 78°14' E 015°38'0 0.0
2019-Jul-02 06:29N 78°14' E 015°38'0 0.3
2019-Jul-02 06:00N 78°14' E 015°38'1 2.2
2019-Jul-02 05:30N 78°15' E 015°33'0 0.0
2019-Jul-02 05:00N 78°15' E 015°33'1 1.1
2019-Jul-02 04:30N 78°15' E 015°34'3 6.5
2019-Jul-02 04:00N 78°16' E 015°19'2 5.1
2019-Jul-02 03:30N 78°15' E 015°08'5 9.1
2019-Jul-02 03:00N 78°14' E 014°47'10 9.5
2019-Jul-02 02:00N 78°11' E 014°03'5 9.1
2019-Jul-02 01:30N 78°09' E 013°42'4 8.9
2019-Jul-02 01:00N 78°08' E 013°21'5 9.2
2019-Jul-02 00:30N 78°08' E 012°59'4 8.4
2019-Jul-02 00:00N 78°11' E 012°44'4 8.8
2019-Jul-01 23:30N 78°15' E 012°36'5 9.3
2019-Jul-01 23:00N 78°19' E 012°26'5 9.3
2019-Jul-01 22:30N 78°23' E 012°17'5 9.2
2019-Jul-01 22:00N 78°28' E 012°07'5 9.3
2019-Jul-01 21:28N 78°32' E 011°54'4 9.3
2019-Jul-01 21:00N 78°36' E 011°42'1 1.6
2019-Jul-01 20:30N 78°36' E 011°40'2 3.8
2019-Jul-01 20:00N 78°35' E 011°48'2 4.0
2019-Jul-01 19:30N 78°33' E 011°51'3 5.8
2019-Jul-01 19:00N 78°36' E 011°44'2 4.7
2019-Jul-01 18:30N 78°34' E 011°51'3 6.4
2019-Jul-01 18:00N 78°31' E 012°02'7 7.6
2019-Jul-01 17:03N 78°31' E 012°38'314.5
2019-Jul-01 16:51N 78°31' E 012°52'3 0.5
2019-Jul-01 11:49N 78°32' E 013°04'614.4
2019-Jul-01 11:26N 78°31' E 012°36'614.3
2019-Jul-01 11:00N 78°28' E 012°10'4 7.7
2019-Jul-01 10:30N 78°26' E 011°55'0 0.0
2019-Jul-01 10:00N 78°26' E 011°55'0 0.0
2019-Jul-01 09:29N 78°26' E 011°55'0 0.0
2019-Jul-01 09:00N 78°26' E 011°55'0 0.0
2019-Jul-01 08:28N 78°26' E 011°55'0 0.0
2019-Jul-01 07:59N 78°26' E 011°55'0 0.0
2019-Jul-01 07:29N 78°26' E 011°55'0 0.0
2019-Jul-01 07:00N 78°26' E 011°55'0 0.0
2019-Jul-01 06:30N 78°26' E 011°55'0 0.0
2019-Jul-01 06:00N 78°26' E 011°55'0 0.9
2019-Jul-01 05:29N 78°26' E 011°57'3 6.2
2019-Jul-01 04:58N 78°27' E 012°13'2 4.5
2019-Jul-01 04:30N 78°25' E 012°20'2 4.1
2019-Jul-01 04:00N 78°23' E 012°23'2 4.2
2019-Jul-01 03:30N 78°21' E 012°27'2 3.6
2019-Jul-01 02:59N 78°20' E 012°32'2 4.2
2019-Jul-01 02:28N 78°18' E 012°36'2 4.7
2019-Jul-01 02:00N 78°16' E 012°39'3 5.7
2019-Jul-01 01:28N 78°13' E 012°40'2 5.0
2019-Jul-01 01:00N 78°10' E 012°37'3 5.2
2019-Jul-01 00:30N 78°08' E 012°30'2 5.0
2019-Jul-01 00:00N 78°06' E 012°23'3 5.3
2019-Jun-30 23:30N 78°04' E 012°16'4 7.5
2019-Jun-30 23:00N 78°01' E 012°06'5 9.8
2019-Jun-30 22:30N 77°56' E 011°58'610.9
2019-Jun-30 21:59N 77°51' E 011°48'713.8
2019-Jun-30 21:30N 77°45' E 011°36'714.1
2019-Jun-30 21:00N 77°38' E 011°25'713.9
2019-Jun-30 20:30N 77°31' E 011°15'713.4
2019-Jun-30 20:00N 77°25' E 011°05'612.0
2019-Jun-30 19:30N 77°26' E 011°32'714.3
2019-Jun-30 19:00N 77°30' E 012°01'714.4
2019-Jun-30 18:30N 77°33' E 012°31'714.3
2019-Jun-30 18:01N 77°36' E 013°01'814.8
2019-Jun-30 17:30N 77°39' E 013°34'714.9
2019-Jun-30 17:00N 77°42' E 014°04'611.6
2019-Jun-30 16:30N 77°45' E 014°28'0 0.0
2019-Jun-30 16:00N 77°45' E 014°28'0 0.0
2019-Jun-30 15:30N 77°45' E 014°28'0 0.0
2019-Jun-30 15:00N 77°45' E 014°28'0 0.0
2019-Jun-30 14:30N 77°45' E 014°28'0 0.0
2019-Jun-30 14:00N 77°45' E 014°28'0 0.0
2019-Jun-30 13:30N 77°45' E 014°28'0 0.2
2019-Jun-30 13:00N 77°45' E 014°27'510.6
2019-Jun-30 12:30N 77°41' E 014°44'0 0.7
2019-Jun-30 12:00N 77°41' E 014°46'1 2.0
2019-Jun-30 11:30N 77°40' E 014°42'611.9
2019-Jun-30 11:00N 77°35' E 014°56'2 3.8
2019-Jun-30 10:28N 77°37' E 014°55'0 0.0
2019-Jun-30 09:55N 77°37' E 014°55'0 0.1
2019-Jun-30 09:22N 77°37' E 014°55'0 0.0
2019-Jun-30 08:58N 77°37' E 014°55'0 0.0
2019-Jun-30 08:25N 77°37' E 014°55'0 0.0
2019-Jun-30 07:58N 77°37' E 014°55'0 0.3
2019-Jun-30 07:24N 77°37' E 014°55'3 6.8
2019-Jun-30 06:59N 77°34' E 014°56'0 0.1
2019-Jun-30 06:30N 77°34' E 014°56'2 4.0
2019-Jun-30 06:00N 77°35' E 015°03'3 5.8
2019-Jun-30 05:30N 77°35' E 014°50'714.9
2019-Jun-30 05:00N 77°36' E 014°16'713.9
2019-Jun-30 04:30N 77°33' E 013°46'713.9
2019-Jun-30 04:00N 77°26' E 013°41'714.7
2019-Jun-30 03:30N 77°19' E 013°48'814.9
2019-Jun-30 02:59N 77°12' E 013°59'715.0
2019-Jun-30 02:30N 77°05' E 014°14'714.8
2019-Jun-30 02:00N 76°59' E 014°29'714.8
2019-Jun-30 01:30N 76°52' E 014°45'814.7
2019-Jun-30 00:58N 76°46' E 015°04'715.2
2019-Jun-30 00:30N 76°40' E 015°22'815.4
2019-Jun-30 00:00N 76°33' E 015°40'815.1
2019-Jun-29 23:30N 76°27' E 015°59'714.7
2019-Jun-29 23:00N 76°22' E 016°23'715.0
2019-Jun-29 22:30N 76°22' E 016°54'914.5
2019-Jun-29 21:53N 76°28' E 017°23'614.9
2019-Jun-29 21:30N 76°33' E 017°36'714.5
2019-Jun-29 21:00N 76°39' E 017°53'714.5
2019-Jun-29 20:30N 76°45' E 018°09'714.7
2019-Jun-29 20:00N 76°51' E 018°26'714.7
2019-Jun-29 19:30N 76°57' E 018°43'815.1
2019-Jun-29 19:00N 77°04' E 019°01'815.1
2019-Jun-29 18:29N 77°11' E 019°19'714.7
2019-Jun-29 17:59N 77°17' E 019°37'714.6
2019-Jun-29 17:29N 77°23' E 019°56'20 2.3
2019-Jun-29 08:30N 77°41' E 020°36'713.9
2019-Jun-29 08:00N 77°46' E 020°11'714.4
2019-Jun-29 07:30N 77°53' E 020°06'714.3
2019-Jun-29 07:00N 77°60' E 020°02'714.1
2019-Jun-29 06:29N 78°07' E 019°58'510.7
2019-Jun-29 05:59N 78°12' E 020°02'612.8
2019-Jun-29 05:30N 78°08' E 020°22'510.4
2019-Jun-29 05:00N 78°05' E 020°44'4 7.4
2019-Jun-29 04:30N 78°08' E 020°55'3 5.0
2019-Jun-29 03:59N 78°07' E 020°45'3 6.9
2019-Jun-29 03:30N 78°05' E 020°31'3 6.7
2019-Jun-29 03:00N 78°06' E 020°16'6 5.6
2019-Jun-29 01:59N 78°11' E 020°01'2 4.9
2019-Jun-29 01:30N 78°13' E 019°55'2 4.9
2019-Jun-29 01:00N 78°15' E 019°50'3 5.1
2019-Jun-29 00:30N 78°18' E 019°48'3 5.6
2019-Jun-29 00:00N 78°21' E 019°48'3 5.5
2019-Jun-28 23:30N 78°23' E 019°48'3 5.4
2019-Jun-28 23:00N 78°26' E 019°47'3 5.4
2019-Jun-28 22:30N 78°29' E 019°48'3 5.2
2019-Jun-28 22:00N 78°31' E 019°52'3 5.8
2019-Jun-28 21:30N 78°34' E 019°59'4 8.5
2019-Jun-28 21:00N 78°37' E 020°15'5 9.7
2019-Jun-28 20:29N 78°39' E 020°38'511.4
2019-Jun-28 20:00N 78°39' E 021°05'3 6.0
2019-Jun-28 19:30N 78°41' E 020°53'0 0.1
2019-Jun-28 19:00N 78°41' E 020°53'0 0.4
2019-Jun-28 18:28N 78°41' E 020°52'0 0.7
2019-Jun-28 17:59N 78°40' E 020°51'1 3.1
2019-Jun-28 17:30N 78°40' E 020°45'4 7.4
2019-Jun-28 17:00N 78°39' E 020°26'4 7.6
2019-Jun-28 16:30N 78°36' E 020°13'4 8.9
2019-Jun-28 16:00N 78°35' E 019°52'5 9.1
2019-Jun-28 15:25N 78°33' E 019°28'1410.8
2019-Jun-28 14:05N 78°19' E 019°08'2 1.0
2019-Jun-28 12:26N 78°17' E 019°09'614.0
2019-Jun-28 12:00N 78°16' E 019°38'611.2
2019-Jun-28 11:30N 78°13' E 020°02'713.7
2019-Jun-28 11:00N 78°08' E 020°23'510.1
2019-Jun-28 10:30N 78°05' E 020°44'3 6.9
2019-Jun-28 10:00N 78°08' E 020°53'713.5
2019-Jun-28 09:29N 78°12' E 021°22'2 0.7
2019-Jun-28 06:04N 78°13' E 021°32'0 4.0
2019-Jun-28 06:00N 78°13' E 021°31'2 1.7
2019-Jun-28 04:53N 78°12' E 021°25'512.7
2019-Jun-28 04:28N 78°10' E 021°03'612.1
2019-Jun-28 04:00N 78°05' E 020°44'713.2
2019-Jun-28 03:29N 77°59' E 020°36'713.5
2019-Jun-28 03:00N 77°53' E 020°22'713.5
2019-Jun-28 02:29N 77°47' E 020°07'713.6
2019-Jun-28 01:59N 77°41' E 019°50'713.7
2019-Jun-28 01:30N 77°35' E 019°34'713.7
2019-Jun-28 00:59N 77°29' E 019°23'813.8
2019-Jun-28 00:24N 77°21' E 019°09'913.7
2019-Jun-27 23:45N 77°13' E 018°53'313.5
2019-Jun-27 23:30N 77°10' E 018°48'713.5
2019-Jun-27 23:00N 77°03' E 018°36'713.7
2019-Jun-27 22:30N 76°57' E 018°23'713.7
2019-Jun-27 22:00N 76°51' E 018°10'713.9
2019-Jun-27 21:30N 76°45' E 017°56'714.0
2019-Jun-27 20:59N 76°38' E 017°42'713.9
2019-Jun-27 20:29N 76°32' E 017°29'1612.1
2019-Jun-27 19:08N 76°21' E 016°36'213.5
2019-Jun-27 19:00N 76°22' E 016°29'2012.9
2019-Jun-27 17:25N 76°36' E 015°26'713.8
2019-Jun-27 16:57N 76°42' E 015°16'614.0
2019-Jun-27 16:31N 76°48' E 015°10'713.7
2019-Jun-27 16:00N 76°55' E 015°13'714.1
2019-Jun-27 15:30N 76°58' E 015°40'5 9.1
2019-Jun-27 15:00N 77°01' E 015°56'0 0.1
2019-Jun-27 14:30N 77°01' E 015°56'0 0.2
2019-Jun-27 14:00N 77°01' E 015°55'0 0.0
2019-Jun-27 13:30N 77°01' E 015°55'0 0.0
2019-Jun-27 13:00N 77°01' E 015°55'0 0.0
2019-Jun-27 12:30N 77°01' E 015°55'0 0.0
2019-Jun-27 12:00N 77°01' E 015°55'0 0.0
2019-Jun-27 11:30N 77°01' E 015°55'2 4.2
2019-Jun-27 11:00N 77°00' E 016°04'3 0.9
2019-Jun-27 07:23N 77°00' E 016°19'0 0.0
2019-Jun-27 06:59N 77°00' E 016°19'20 8.1
2019-Jun-27 04:30N 76°59' E 014°50'714.0
2019-Jun-27 04:00N 77°02' E 014°21'713.8
2019-Jun-27 03:30N 77°06' E 013°57'714.0
2019-Jun-27 03:00N 77°12' E 013°42'1413.9
2019-Jun-27 02:00N 77°24' E 013°10'714.0
2019-Jun-27 01:30N 77°31' E 012°55'714.0
2019-Jun-27 01:00N 77°37' E 012°40'714.0
2019-Jun-27 00:30N 77°43' E 012°23'117 9.8
2019-Jun-26 12:29N 79°38' E 010°28'714.3
2019-Jun-26 12:00N 79°42' E 009°58'6 6.7
2019-Jun-26 11:06N 79°48' E 010°11'0 0.4
2019-Jun-26 10:54N 79°48' E 010°11'0 0.7
2019-Jun-26 10:11N 79°48' E 010°10'1 3.5
2019-Jun-26 09:58N 79°49' E 010°06'3 5.8
2019-Jun-26 09:30N 79°49' E 009°51'10 2.6
2019-Jun-26 05:30N 79°48' E 008°53'1 1.2
2019-Jun-26 05:00N 79°48' E 008°53'2 4.0
2019-Jun-26 04:30N 79°46' E 008°56'1811.9
2019-Jun-26 03:00N 79°28' E 009°10'1212.3
2019-Jun-26 02:00N 79°16' E 009°18'714.1
2019-Jun-26 01:30N 79°09' E 009°20'714.2
2019-Jun-26 01:01N 79°02' E 009°20'714.3
2019-Jun-26 00:30N 78°54' E 009°19'714.4
2019-Jun-26 00:00N 78°47' E 009°20'1314.3
2019-Jun-25 23:05N 78°35' E 009°46'214.6
2019-Jun-25 22:59N 78°34' E 009°51'814.5
2019-Jun-25 22:25N 78°27' E 010°13'614.5
2019-Jun-25 22:00N 78°22' E 010°29'714.6
2019-Jun-25 21:30N 78°16' E 010°51'  

Dump ship's entire track history